createdAt,value
2023-03-24T00:01:28.278Z,13.22
2023-03-24T00:03:56.884Z,13.25
2023-03-24T00:06:26.743Z,13.25
2023-03-24T00:08:55.058Z,13.32
2023-03-24T00:11:23.167Z,13.42
2023-03-24T00:13:51.483Z,13.48
2023-03-24T00:16:22.233Z,13.43
2023-03-24T00:18:54.365Z,13.27
2023-03-24T00:21:25.144Z,13.09
2023-03-24T00:23:56.091Z,13.15
2023-03-24T00:26:25.518Z,13.14
2023-03-24T00:28:55.571Z,13.26
2023-03-24T00:31:25.018Z,13.43
2023-03-24T00:33:53.948Z,13.58
2023-03-24T00:36:23.293Z,13.82
2023-03-24T00:38:51.598Z,14.04
2023-03-24T00:41:21.816Z,14.25
2023-03-24T00:43:50.898Z,14.44
2023-03-24T00:46:29.967Z,14.20
2023-03-24T00:49:02.777Z,14.35
2023-03-24T00:51:32.525Z,14.40
2023-03-24T00:54:02.098Z,14.44
2023-03-24T00:56:34.711Z,14.54
2023-03-24T00:59:03.564Z,14.59
2023-03-24T01:01:35.863Z,14.78
2023-03-24T01:04:06.326Z,14.91
2023-03-24T01:06:36.571Z,14.82
2023-03-24T01:09:06.154Z,14.89
2023-03-24T01:11:42.383Z,14.90
2023-03-24T01:14:11.871Z,14.84
2023-03-24T01:16:40.714Z,14.93
2023-03-24T01:19:09.888Z,15.00
2023-03-24T01:21:38.724Z,14.99
2023-03-24T01:24:08.023Z,15.04
2023-03-24T01:26:40.082Z,14.97
2023-03-24T01:29:08.981Z,14.83
2023-03-24T01:31:37.142Z,14.86
2023-03-24T01:34:05.327Z,14.86
2023-03-24T01:36:33.904Z,14.83
2023-03-24T01:39:02.708Z,14.90
2023-03-24T01:41:33.914Z,14.93
2023-03-24T01:44:18.965Z,15.03
2023-03-24T01:46:48.534Z,15.09
2023-03-24T01:49:17.082Z,14.95
2023-03-24T01:51:46.380Z,15.00
2023-03-24T01:54:18.083Z,15.00
2023-03-24T01:56:48.861Z,15.09
2023-03-24T01:59:19.676Z,14.86
2023-03-24T02:04:48.639Z,14.68
2023-03-24T02:07:19.820Z,14.83
2023-03-24T02:09:48.642Z,15.01
2023-03-24T02:12:16.962Z,15.15
2023-03-24T02:14:45.261Z,14.85
2023-03-24T02:17:33.458Z,14.84
2023-03-24T02:20:18.707Z,14.67
2023-03-24T02:23:02.043Z,14.22
2023-03-24T02:25:51.519Z,13.82
2023-03-24T02:28:26.373Z,13.56
2023-03-24T02:31:04.650Z,13.43
2023-03-24T02:33:51.307Z,13.28
2023-03-24T02:36:37.781Z,13.36
2023-03-24T02:39:27.060Z,13.20
2023-03-24T02:42:02.083Z,13.29
2023-03-24T02:44:33.455Z,13.32
2023-03-24T02:47:04.584Z,13.31
2023-03-24T02:49:37.692Z,13.18
2023-03-24T02:52:08.100Z,13.15
2023-03-24T02:54:43.152Z,13.10
2023-03-24T02:57:16.386Z,13.08
2023-03-24T03:00:07.515Z,12.98
2023-03-24T03:03:00.663Z,13.01
2023-03-24T03:05:31.694Z,13.15
2023-03-24T03:08:02.002Z,13.47
2023-03-24T03:10:32.393Z,13.65
2023-03-24T03:13:06.004Z,13.86
2023-03-24T03:15:36.774Z,14.06
2023-03-24T03:18:08.462Z,14.12
2023-03-24T03:20:39.888Z,14.19
2023-03-24T03:23:10.692Z,14.36
2023-03-24T03:25:42.353Z,14.39
2023-03-24T03:28:13.297Z,14.37
2023-03-24T03:30:43.219Z,14.39
2023-03-24T03:33:13.967Z,14.47
2023-03-24T03:35:44.928Z,14.59
2023-03-24T03:38:16.346Z,14.58
2023-03-24T03:40:51.289Z,14.57
2023-03-24T03:43:24.347Z,14.66
2023-03-24T03:45:52.736Z,14.72
2023-03-24T03:48:26.606Z,14.71
2023-03-24T03:51:06.306Z,14.69
2023-03-24T03:53:48.662Z,14.75
2023-03-24T03:56:18.518Z,14.74
2023-03-24T03:58:59.599Z,14.79
2023-03-24T04:01:29.459Z,14.79
2023-03-24T04:04:33.352Z,14.78
2023-03-24T04:07:24.476Z,14.80
2023-03-24T04:10:12.381Z,14.77
2023-03-24T04:12:48.176Z,14.76
2023-03-24T04:15:40.702Z,14.73
2023-03-24T04:18:41.553Z,14.62
2023-03-24T04:21:23.419Z,14.58
2023-03-24T04:23:56.737Z,14.64
2023-03-24T04:26:28.536Z,14.62
2023-03-24T04:29:06.189Z,14.56
2023-03-24T04:31:37.486Z,14.58
2023-03-24T04:34:09.620Z,14.54
2023-03-24T04:36:50.508Z,14.41
2023-03-24T04:39:28.324Z,14.32
2023-03-24T04:42:00.937Z,14.25
2023-03-24T04:44:33.135Z,14.33
2023-03-24T04:47:25.693Z,14.27
2023-03-24T04:50:11.591Z,14.07
2023-03-24T04:52:40.939Z,13.81
2023-03-24T04:55:22.834Z,13.70
2023-03-24T04:57:52.304Z,13.50
2023-03-24T05:00:21.687Z,13.47
2023-03-24T05:02:52.454Z,13.38
2023-03-24T05:05:26.411Z,13.28
2023-03-24T05:07:55.192Z,13.26
2023-03-24T05:10:23.862Z,13.27
2023-03-24T05:12:56.332Z,13.17
2023-03-24T05:15:26.802Z,13.21
2023-03-24T05:18:05.420Z,13.18
2023-03-24T05:20:33.861Z,13.08
2023-03-24T05:23:11.484Z,13.09
2023-03-24T05:25:41.095Z,13.06
2023-03-24T05:28:11.481Z,12.99
2023-03-24T05:30:39.496Z,12.91
2023-03-24T05:33:25.663Z,12.98
2023-03-24T05:35:53.704Z,12.97
2023-03-24T05:38:21.802Z,12.97
2023-03-24T05:40:57.092Z,12.99
2023-03-24T05:43:28.325Z,12.99
2023-03-24T05:46:05.492Z,12.96
2023-03-24T05:48:36.861Z,12.96
2023-03-24T05:51:13.517Z,13.01
2023-03-24T05:53:42.295Z,13.04
2023-03-24T05:56:21.482Z,12.96
2023-03-24T05:59:15.788Z,12.94
2023-03-24T06:02:07.440Z,13.00
2023-03-24T06:05:08.477Z,13.03
2023-03-24T06:07:36.558Z,13.15
2023-03-24T06:10:07.904Z,13.12
2023-03-24T06:12:43.840Z,13.13
2023-03-24T06:15:12.272Z,13.14
2023-03-24T06:17:43.509Z,13.23
2023-03-24T06:20:24.350Z,13.28
2023-03-24T06:23:16.944Z,13.36
2023-03-24T06:25:56.528Z,13.58
2023-03-24T06:28:26.375Z,13.62
2023-03-24T06:30:59.059Z,13.71
2023-03-24T06:33:34.564Z,13.80
2023-03-24T06:36:06.872Z,13.87
2023-03-24T06:38:35.935Z,14.07
2023-03-24T06:41:06.186Z,14.11
2023-03-24T06:43:34.308Z,14.13
2023-03-24T06:46:02.226Z,14.06
2023-03-24T06:48:31.305Z,14.13
2023-03-24T06:51:05.455Z,14.16
2023-03-24T06:53:33.312Z,14.29
2023-03-24T06:56:01.927Z,14.47
2023-03-24T06:58:36.823Z,14.63
2023-03-24T07:01:17.007Z,14.80
2023-03-24T07:03:54.973Z,14.77
2023-03-24T07:06:43.263Z,14.94
2023-03-24T07:09:20.684Z,15.08
2023-03-24T07:11:49.704Z,15.24
2023-03-24T07:14:18.333Z,15.12
2023-03-24T07:16:47.455Z,15.03
2023-03-24T07:19:43.945Z,14.72
2023-03-24T07:22:33.309Z,14.66
2023-03-24T07:25:21.555Z,14.70
2023-03-24T07:27:57.461Z,14.82
2023-03-24T07:30:37.411Z,14.82
2023-03-24T07:33:10.164Z,14.80
2023-03-24T07:35:39.705Z,14.39
2023-03-24T07:38:10.569Z,14.07
2023-03-24T07:40:39.203Z,13.86
2023-03-24T07:43:07.369Z,13.79
2023-03-24T07:45:54.301Z,13.56
2023-03-24T07:48:23.120Z,13.66
2023-03-24T07:50:53.601Z,13.78
2023-03-24T07:53:47.926Z,13.73
2023-03-24T07:56:25.212Z,13.72
2023-03-24T07:58:57.060Z,13.87
2023-03-24T08:01:32.208Z,13.83
2023-03-24T08:04:06.071Z,13.81
2023-03-24T08:06:54.788Z,13.75
2023-03-24T08:09:25.217Z,13.77
2023-03-24T08:11:54.213Z,13.95
2023-03-24T08:14:23.723Z,14.23
2023-03-24T08:16:54.902Z,14.62
2023-03-24T08:19:22.965Z,15.05
2023-03-24T08:21:51.076Z,15.37
2023-03-24T08:24:20.018Z,15.55
2023-03-24T08:26:52.952Z,15.84
2023-03-24T08:29:21.186Z,15.92
2023-03-24T08:31:49.168Z,15.56
2023-03-24T08:34:17.080Z,15.32
2023-03-24T08:36:45.375Z,15.23
2023-03-24T08:39:13.538Z,15.21
2023-03-24T08:41:41.988Z,15.26
2023-03-24T08:44:12.373Z,15.72
2023-03-24T08:46:42.212Z,15.85
2023-03-24T08:49:10.715Z,15.66
2023-03-24T08:51:38.708Z,15.70
2023-03-24T08:54:09.614Z,15.64
2023-03-24T08:56:39.159Z,15.30
2023-03-24T08:59:07.836Z,14.93
2023-03-24T09:01:37.509Z,14.50
2023-03-24T09:04:05.963Z,14.62
2023-03-24T09:06:34.538Z,14.76
2023-03-24T09:09:02.574Z,14.84
2023-03-24T09:11:30.653Z,14.75
2023-03-24T09:13:58.630Z,14.48
2023-03-24T09:16:27.368Z,14.36
2023-03-24T09:18:58.828Z,14.31
2023-03-24T09:21:27.216Z,14.42
2023-03-24T09:23:55.018Z,14.41
2023-03-24T09:26:23.244Z,14.27
2023-03-24T09:28:51.316Z,14.15
2023-03-24T09:31:19.448Z,13.87
2023-03-24T09:33:47.510Z,13.80
2023-03-24T09:36:17.172Z,13.65
2023-03-24T09:38:45.336Z,13.49
2023-03-24T09:41:17.448Z,13.20
2023-03-24T09:43:48.625Z,12.97
2023-03-24T09:46:19.385Z,12.94
2023-03-24T09:48:50.932Z,12.68
2023-03-24T09:51:23.604Z,12.50
2023-03-24T09:53:54.801Z,12.41
2023-03-24T09:56:24.004Z,12.46
2023-03-24T09:58:55.956Z,12.24
2023-03-24T10:01:24.553Z,12.01
2023-03-24T10:03:53.144Z,11.88
2023-03-24T10:06:26.628Z,11.83
2023-03-24T10:08:59.870Z,11.71
2023-03-24T10:11:32.421Z,11.64
2023-03-24T10:14:08.662Z,11.59
2023-03-24T10:16:42.761Z,11.44
2023-03-24T10:19:20.042Z,11.40
2023-03-24T10:21:56.754Z,11.38
2023-03-24T10:24:27.745Z,11.29
2023-03-24T10:27:00.746Z,11.40
2023-03-24T10:29:31.242Z,11.57
2023-03-24T10:32:01.634Z,11.83
2023-03-24T10:34:31.618Z,11.85
2023-03-24T10:37:01.991Z,12.21
2023-03-24T10:39:41.936Z,12.83
2023-03-24T10:42:17.085Z,12.96
2023-03-24T10:44:45.881Z,13.08
2023-03-24T10:47:15.501Z,13.18
2023-03-24T10:49:56.143Z,13.97
2023-03-24T10:52:28.525Z,14.09
2023-03-24T10:54:57.839Z,14.30
2023-03-24T10:57:27.356Z,14.60
2023-03-24T10:59:56.964Z,14.14
2023-03-24T11:02:26.535Z,13.68
2023-03-24T11:04:57.415Z,13.55
2023-03-24T11:07:31.205Z,13.42
2023-03-24T11:10:06.853Z,13.42
2023-03-24T11:12:36.105Z,13.30
2023-03-24T11:15:21.007Z,13.57
2023-03-24T11:17:55.129Z,13.78
2023-03-24T11:20:28.204Z,13.70
2023-03-24T11:23:00.598Z,13.59
2023-03-24T11:25:32.494Z,13.63
2023-03-24T11:28:03.021Z,13.79
2023-03-24T11:30:34.189Z,14.12
2023-03-24T11:33:04.234Z,14.60
2023-03-24T11:35:41.700Z,15.12
2023-03-24T11:38:17.266Z,14.74
2023-03-24T11:40:54.527Z,13.87
2023-03-24T11:43:23.005Z,13.84
2023-03-24T11:45:55.216Z,13.99
2023-03-24T11:48:26.744Z,14.43
2023-03-24T11:50:56.645Z,15.19
2023-03-24T11:53:28.499Z,15.89
2023-03-24T11:56:02.373Z,16.17
2023-03-24T11:58:36.278Z,15.98
2023-03-24T12:01:07.959Z,16.38
2023-03-24T12:03:48.103Z,16.50
2023-03-24T12:06:23.580Z,15.83
2023-03-24T12:08:59.414Z,16.61
2023-03-24T12:11:34.917Z,16.97
2023-03-24T12:14:06.108Z,16.60
2023-03-24T12:16:41.249Z,15.99
2023-03-24T12:19:29.566Z,15.71
2023-03-24T12:22:01.420Z,15.48
2023-03-24T12:24:39.488Z,16.04
2023-03-24T12:27:13.889Z,16.12
2023-03-24T12:29:54.086Z,16.36
2023-03-24T12:32:37.519Z,17.16
2023-03-24T12:35:20.447Z,18.35
2023-03-24T12:37:52.901Z,18.49
2023-03-24T12:40:47.543Z,20.08
2023-03-24T12:43:23.205Z,21.92
2023-03-24T12:45:54.029Z,22.24
2023-03-24T12:48:51.592Z,20.62
2023-03-24T12:51:25.027Z,20.70
2023-03-24T12:54:10.734Z,21.10
2023-03-24T12:56:45.244Z,19.15
2023-03-24T12:59:16.949Z,19.90
2023-03-24T13:01:50.462Z,20.31
2023-03-24T13:04:21.494Z,19.48
2023-03-24T13:06:53.320Z,19.30
2023-03-24T13:09:29.832Z,18.24
2023-03-24T13:12:01.987Z,19.98
2023-03-24T13:14:32.628Z,18.60
2023-03-24T13:17:09.313Z,18.26
2023-03-24T13:19:38.120Z,20.24
2023-03-24T13:22:07.798Z,18.58
2023-03-24T13:24:35.883Z,17.44
2023-03-24T13:27:10.775Z,18.10
2023-03-24T13:29:51.142Z,18.85
2023-03-24T13:32:26.866Z,20.08
2023-03-24T13:34:57.925Z,20.73
2023-03-24T13:37:27.756Z,22.12
2023-03-24T13:39:57.913Z,22.12
2023-03-24T13:42:31.329Z,20.48
2023-03-24T13:45:00.619Z,18.85
2023-03-24T13:47:31.721Z,18.07
2023-03-24T13:50:01.922Z,18.00
2023-03-24T13:52:32.795Z,18.17
2023-03-24T13:55:05.383Z,19.66
2023-03-24T13:57:34.867Z,18.16
2023-03-24T14:00:11.723Z,17.45
2023-03-24T14:02:46.968Z,20.19
2023-03-24T14:05:29.896Z,21.18
2023-03-24T14:08:11.607Z,18.39
2023-03-24T14:10:41.571Z,21.27
2023-03-24T14:13:37.266Z,24.49
2023-03-24T14:16:23.507Z,26.67
2023-03-24T14:18:51.509Z,23.53
2023-03-24T14:21:29.894Z,23.97
2023-03-24T14:23:59.667Z,26.59
2023-03-24T14:26:31.722Z,27.55
2023-03-24T14:29:01.408Z,27.06
2023-03-24T14:31:30.345Z,26.31
2023-03-24T14:34:03.758Z,27.38
2023-03-24T14:36:35.384Z,25.63
2023-03-24T14:39:21.579Z,23.82
2023-03-24T14:41:51.941Z,20.89
2023-03-24T14:44:34.578Z,20.12
2023-03-24T14:47:04.599Z,22.60
2023-03-24T14:49:34.029Z,20.39
2023-03-24T14:52:04.829Z,19.19
2023-03-24T14:54:36.374Z,19.00
2023-03-24T14:57:05.019Z,18.82
2023-03-24T14:59:39.109Z,18.40
2023-03-24T15:02:15.016Z,18.12
2023-03-24T15:04:45.102Z,18.12
2023-03-24T15:07:15.087Z,18.83
2023-03-24T15:09:49.358Z,19.27
2023-03-24T15:12:17.501Z,19.14
2023-03-24T15:14:45.668Z,19.43
2023-03-24T15:17:22.161Z,19.40
2023-03-24T15:19:52.492Z,20.01
2023-03-24T15:22:21.208Z,21.42
2023-03-24T15:24:52.091Z,21.63
2023-03-24T15:27:25.150Z,22.67
2023-03-24T15:29:57.891Z,22.91
2023-03-24T15:32:32.049Z,22.72
2023-03-24T15:35:00.808Z,21.33
2023-03-24T15:37:32.591Z,20.68
2023-03-24T15:40:13.199Z,22.57
2023-03-24T15:42:45.093Z,21.51
2023-03-24T15:45:27.168Z,20.07
2023-03-24T15:47:56.893Z,19.39
2023-03-24T15:50:32.836Z,18.78
2023-03-24T15:53:01.741Z,19.48
2023-03-24T15:55:31.689Z,21.09
2023-03-24T15:58:01.628Z,22.90
2023-03-24T16:00:30.617Z,22.41
2023-03-24T16:03:02.426Z,19.66
2023-03-24T16:05:30.955Z,19.44
2023-03-24T16:08:00.753Z,19.47
2023-03-24T16:10:33.117Z,20.45
2023-03-24T16:13:12.357Z,21.84
2023-03-24T16:15:41.775Z,22.39
2023-03-24T16:18:14.120Z,22.72
2023-03-24T16:20:42.226Z,21.11
2023-03-24T16:23:11.430Z,20.17
2023-03-24T16:25:39.631Z,20.03
2023-03-24T16:28:08.265Z,20.85
2023-03-24T16:30:39.508Z,20.96
2023-03-24T16:33:08.210Z,20.88
2023-03-24T16:35:38.700Z,20.60
2023-03-24T16:38:06.586Z,20.99
2023-03-24T16:40:37.040Z,20.92
2023-03-24T16:43:05.009Z,21.00
2023-03-24T16:45:33.479Z,20.32
2023-03-24T16:48:02.521Z,19.47
2023-03-24T16:50:35.605Z,17.66
2023-03-24T16:53:06.010Z,17.04
2023-03-24T16:55:34.196Z,17.63
2023-03-24T16:58:02.870Z,17.90
2023-03-24T17:00:31.368Z,17.78
2023-03-24T17:03:00.142Z,17.71
2023-03-24T17:05:29.710Z,17.39
2023-03-24T17:07:58.282Z,17.45
2023-03-24T17:10:28.078Z,17.02
2023-03-24T17:12:56.657Z,16.79
2023-03-24T17:15:25.896Z,16.67
2023-03-24T17:17:54.170Z,16.60
2023-03-24T17:20:23.038Z,16.46
2023-03-24T17:22:52.102Z,16.14
2023-03-24T17:25:22.289Z,16.08
2023-03-24T17:27:52.213Z,15.57
2023-03-24T17:30:26.836Z,15.26
2023-03-24T17:32:55.530Z,15.09
2023-03-24T17:35:24.489Z,14.89
2023-03-24T17:37:52.936Z,14.63
2023-03-24T17:40:21.774Z,14.43
2023-03-24T17:42:50.531Z,14.26
2023-03-24T17:45:20.987Z,14.16
2023-03-24T17:47:49.065Z,14.05
2023-03-24T17:50:17.499Z,13.94
2023-03-24T17:52:47.382Z,13.88
2023-03-24T17:55:16.351Z,13.74
2023-03-24T17:57:45.416Z,13.70
2023-03-24T18:00:16.562Z,13.64
2023-03-24T18:02:46.368Z,13.65
2023-03-24T18:05:16.100Z,13.52
2023-03-24T18:07:44.213Z,13.41
2023-03-24T18:10:12.058Z,13.34
2023-03-24T18:12:39.994Z,13.32
2023-03-24T18:15:08.985Z,13.28
2023-03-24T18:17:37.494Z,13.21
2023-03-24T18:20:11.249Z,13.14
2023-03-24T18:22:41.749Z,13.07
2023-03-24T18:25:10.930Z,13.17
2023-03-24T18:27:38.894Z,13.10
2023-03-24T18:30:11.127Z,13.08
2023-03-24T18:32:40.081Z,13.03
2023-03-24T18:35:18.601Z,13.04
2023-03-24T18:37:49.513Z,12.92
2023-03-24T18:40:19.062Z,12.98
2023-03-24T18:42:47.946Z,12.94
2023-03-24T18:45:18.394Z,13.00
2023-03-24T18:47:50.128Z,13.00
2023-03-24T18:50:19.532Z,13.03
2023-03-24T18:52:47.599Z,13.05
2023-03-24T18:55:18.284Z,13.06
2023-03-24T18:57:46.505Z,13.02
2023-03-24T19:00:20.237Z,12.97
2023-03-24T19:02:49.654Z,13.00
2023-03-24T19:05:19.439Z,13.00
2023-03-24T19:07:52.227Z,13.21
2023-03-24T19:10:20.510Z,13.40
2023-03-24T19:12:49.200Z,13.41
2023-03-24T19:15:20.494Z,13.41
2023-03-24T19:17:50.029Z,13.46
2023-03-24T19:20:19.773Z,13.44
2023-03-24T19:22:48.275Z,13.30
2023-03-24T19:25:18.178Z,13.12
2023-03-24T19:27:47.196Z,12.95
2023-03-24T19:30:15.914Z,12.93
2023-03-24T19:32:44.284Z,12.93
2023-03-24T19:35:13.146Z,13.00
2023-03-24T19:37:43.785Z,12.99
2023-03-24T19:40:15.842Z,12.89
2023-03-24T19:42:45.104Z,12.98
2023-03-24T19:45:15.635Z,13.11
2023-03-24T19:47:48.209Z,13.17
2023-03-24T19:50:17.929Z,13.15
2023-03-24T19:52:50.837Z,13.21
2023-03-24T19:55:19.990Z,12.82
2023-03-24T19:57:48.388Z,12.48
2023-03-24T20:00:19.345Z,12.25
2023-03-24T20:02:47.709Z,12.17
2023-03-24T20:05:19.867Z,12.23
2023-03-24T20:07:49.465Z,12.28
2023-03-24T20:10:17.972Z,12.22
2023-03-24T20:12:46.630Z,12.21
2023-03-24T20:15:14.760Z,12.16
2023-03-24T20:17:43.262Z,12.08
2023-03-24T20:20:12.700Z,12.06
2023-03-24T20:22:42.500Z,12.04
2023-03-24T20:25:13.155Z,11.92
2023-03-24T20:27:41.911Z,11.90
2023-03-24T20:30:11.024Z,11.71
2023-03-24T20:32:39.822Z,11.65
2023-03-24T20:35:09.233Z,11.59
2023-03-24T20:37:38.773Z,11.57
2023-03-24T20:40:09.749Z,11.53
2023-03-24T20:42:40.269Z,11.54
2023-03-24T20:45:09.020Z,11.37
2023-03-24T20:47:38.226Z,11.29
2023-03-24T20:50:08.083Z,11.18
2023-03-24T20:52:37.024Z,11.16
2023-03-24T20:55:07.213Z,11.09
2023-03-24T20:57:36.450Z,11.02
2023-03-24T21:00:14.046Z,11.02
2023-03-24T21:02:43.837Z,11.11
2023-03-24T21:05:12.379Z,11.17
2023-03-24T21:07:44.023Z,11.17
2023-03-24T21:10:12.434Z,11.36
2023-03-24T21:12:53.126Z,11.52
2023-03-24T21:15:25.601Z,11.49
2023-03-24T21:17:53.993Z,11.53
2023-03-24T21:20:22.717Z,11.62
2023-03-24T21:22:55.679Z,11.47
2023-03-24T21:25:29.019Z,11.34
2023-03-24T21:28:00.363Z,11.40
2023-03-24T21:30:31.119Z,11.57
2023-03-24T21:33:01.215Z,11.70
2023-03-24T21:35:30.368Z,11.78
2023-03-24T21:37:59.103Z,11.86
2023-03-24T21:40:30.444Z,11.95
2023-03-24T21:43:05.248Z,11.84
2023-03-24T21:45:37.336Z,11.70
2023-03-24T21:48:08.621Z,11.65
2023-03-24T21:50:39.178Z,11.63
2023-03-24T21:53:15.368Z,11.59
2023-03-24T21:55:49.873Z,11.63
2023-03-24T21:58:18.464Z,11.58
2023-03-24T22:00:48.737Z,11.67
2023-03-24T22:03:17.589Z,11.82
2023-03-24T22:05:45.817Z,11.83
2023-03-24T22:08:22.816Z,11.71
2023-03-24T22:10:54.536Z,11.49
2023-03-24T22:13:22.625Z,11.24
2023-03-24T22:15:56.213Z,11.10
2023-03-24T22:18:25.113Z,10.92
2023-03-24T22:20:54.157Z,10.68
2023-03-24T22:23:22.940Z,10.57
2023-03-24T22:25:52.875Z,10.53
2023-03-24T22:28:22.108Z,10.37
2023-03-24T22:30:50.379Z,10.39
2023-03-24T22:33:20.464Z,10.49
2023-03-24T22:35:49.246Z,10.61
2023-03-24T22:38:18.312Z,10.57
2023-03-24T22:40:46.747Z,10.69
2023-03-24T22:43:17.327Z,10.92
2023-03-24T22:45:45.877Z,11.16
2023-03-24T22:48:14.625Z,11.25
2023-03-24T22:50:44.102Z,11.26
2023-03-24T22:53:12.694Z,11.36
2023-03-24T22:55:42.406Z,11.35
2023-03-24T22:58:11.572Z,11.47
2023-03-24T23:00:40.960Z,11.46
2023-03-24T23:03:09.098Z,11.49
2023-03-24T23:05:40.603Z,11.62
2023-03-24T23:08:10.315Z,11.73
2023-03-24T23:10:42.510Z,11.70
2023-03-24T23:13:10.824Z,11.77
2023-03-24T23:15:39.529Z,11.80
2023-03-24T23:18:09.109Z,11.74
2023-03-24T23:20:37.641Z,11.82
2023-03-24T23:23:06.987Z,11.69
2023-03-24T23:25:40.897Z,11.45
2023-03-24T23:28:09.728Z,10.95
2023-03-24T23:30:38.722Z,10.14
2023-03-24T23:33:06.989Z,9.70
2023-03-24T23:35:37.787Z,9.09
2023-03-24T23:38:06.906Z,8.81
2023-03-24T23:40:36.821Z,8.59
2023-03-24T23:43:04.927Z,8.38
2023-03-24T23:45:33.094Z,8.42
2023-03-24T23:48:01.690Z,8.51
2023-03-24T23:50:32.484Z,8.52
2023-03-24T23:53:01.497Z,8.51
2023-03-24T23:55:29.595Z,8.54
2023-03-24T23:57:59.108Z,8.53
